KCQT

Los Angeles / USC Campus Downtown Airport

Los Angeles, California, USA
METAR KCQT 221447Z AUTO 00000KT 10SM OVC020 16/11 A2992 RMK AO2 SLP130 T01610111 53014
Observed Flight Rules
May-22 @ 14:47 UTC (33 minutes ago) Marginal Visual Flight Rules
Visibility Clouds
10 miles
  • Overcast at 2,000' AGL
Temperatures Readings
Current 16°C / 61°F
Dewpoint 11°C / 52°F
Humidity 72%
Altimeter 29.92" Hg
Pressure 1013 hPa
Elevation 56
METAR KCQT 221447Z AUTO 00000KT 10SM OVC020 16/11 A2992 RMK AO2 SLP130 T01610111 53014
Observed Flight Rules
May-22 @ 14:47 UTC
(33 minutes ago)
MVFR
Clouds
  • Overcast at 2,000' AGL
Temperature Dewpoint
16°C / 61°F 11°C / 52°F
Humidity Altimeter Pressure
72% 29.92" Hg 1013 hPa